createdAt,value
2018-04-14T00:00:24.133Z,988.09
2018-04-14T00:01:24.288Z,988.08
2018-04-14T00:02:24.436Z,988.10
2018-04-14T00:03:24.586Z,988.08
2018-04-14T00:04:24.736Z,988.03
2018-04-14T00:05:24.891Z,988.08
2018-04-14T00:06:25.059Z,988.12
2018-04-14T00:07:25.208Z,988.11
2018-04-14T00:08:25.363Z,988.14
2018-04-14T00:09:25.510Z,988.14
2018-04-14T00:10:25.661Z,988.20
2018-04-14T00:11:25.812Z,988.18
2018-04-14T00:12:25.964Z,988.29
2018-04-14T00:13:26.114Z,988.27
2018-04-14T00:14:26.265Z,988.23
2018-04-14T00:15:26.416Z,988.24
2018-04-14T00:16:26.569Z,988.32
2018-04-14T00:17:26.721Z,988.36
2018-04-14T00:18:26.871Z,988.34
2018-04-14T00:19:27.020Z,988.37
2018-04-14T00:20:27.171Z,988.39
2018-04-14T00:21:27.323Z,988.41
2018-04-14T00:22:27.474Z,988.42
2018-04-14T00:23:27.625Z,988.44
2018-04-14T00:24:27.775Z,988.48
2018-04-14T00:25:27.927Z,988.51
2018-04-14T00:26:28.076Z,988.53
2018-04-14T00:27:28.227Z,988.54
2018-04-14T00:28:28.378Z,988.51
2018-04-14T00:29:28.529Z,988.55
2018-04-14T00:30:28.679Z,988.56
2018-04-14T00:31:28.831Z,988.51
2018-04-14T00:32:28.981Z,988.56
2018-04-14T00:33:29.135Z,988.53
2018-04-14T00:34:29.284Z,988.53
2018-04-14T00:35:29.433Z,988.49
2018-04-14T00:36:29.588Z,988.55
2018-04-14T00:37:29.736Z,988.53
2018-04-14T00:38:29.891Z,988.52
2018-04-14T00:39:30.042Z,988.56
2018-04-14T00:40:30.187Z,988.50
2018-04-14T00:41:30.337Z,988.52
2018-04-14T00:42:30.488Z,988.49
2018-04-14T00:43:30.636Z,988.50
2018-04-14T00:44:30.832Z,988.52
2018-04-14T00:45:30.938Z,988.50
2018-04-14T00:46:31.090Z,988.53
2018-04-14T00:47:31.243Z,988.52
2018-04-14T00:48:31.392Z,988.55
2018-04-14T00:49:31.541Z,988.53
2018-04-14T00:50:31.691Z,988.53
2018-04-14T00:51:31.843Z,988.55
2018-04-14T00:52:31.994Z,988.54
2018-04-14T00:53:32.145Z,988.50
2018-04-14T00:54:32.296Z,988.49
2018-04-14T00:55:32.445Z,988.54
2018-04-14T00:56:32.596Z,988.52
2018-04-14T00:57:32.999Z,988.57
2018-04-14T00:58:32.893Z,988.56
2018-04-14T00:59:33.046Z,988.57
2018-04-14T01:00:33.193Z,988.57
2018-04-14T01:01:33.345Z,988.59
2018-04-14T01:02:33.496Z,988.58
2018-04-14T01:03:33.648Z,988.59
2018-04-14T01:04:33.798Z,988.55
2018-04-14T01:05:33.947Z,988.55
2018-04-14T01:06:34.101Z,988.56
2018-04-14T01:07:34.252Z,988.57
2018-04-14T01:08:34.401Z,988.60
2018-04-14T01:09:34.555Z,988.56
2018-04-14T01:10:34.705Z,988.59
2018-04-14T01:11:34.856Z,988.57
2018-04-14T01:12:35.010Z,988.63
2018-04-14T01:13:35.160Z,988.63
2018-04-14T01:14:35.312Z,988.64
2018-04-14T01:15:35.466Z,988.65
2018-04-14T01:16:35.618Z,988.64
2018-04-14T01:17:35.764Z,988.68
2018-04-14T01:18:35.915Z,988.67
2018-04-14T01:19:36.064Z,988.71
2018-04-14T01:20:36.212Z,988.69
2018-04-14T01:21:36.352Z,988.70
2018-04-14T01:22:36.499Z,988.68
2018-04-14T01:23:36.652Z,988.65
2018-04-14T01:24:36.800Z,988.69
2018-04-14T01:25:36.950Z,988.65
2018-04-14T01:26:37.101Z,988.66
2018-04-14T01:27:37.251Z,988.67
2018-04-14T01:28:37.408Z,988.67
2018-04-14T01:29:37.554Z,988.68
2018-04-14T01:30:37.704Z,988.70
2018-04-14T01:31:37.862Z,988.73
2018-04-14T01:32:38.010Z,988.76
2018-04-14T01:33:38.160Z,988.76
2018-04-14T01:34:38.315Z,988.75
2018-04-14T01:35:38.465Z,988.80
2018-04-14T01:36:38.615Z,988.77
2018-04-14T01:37:38.768Z,988.79
2018-04-14T01:38:38.917Z,988.76
2018-04-14T01:39:39.066Z,988.78
2018-04-14T01:40:39.220Z,988.73
2018-04-14T01:41:39.370Z,988.68
2018-04-14T01:42:39.519Z,988.73
2018-04-14T01:43:39.672Z,988.72
2018-04-14T01:44:39.822Z,988.72
2018-04-14T01:45:39.972Z,988.74
2018-04-14T01:46:40.124Z,988.73
2018-04-14T01:47:40.275Z,988.72
2018-04-14T01:48:40.431Z,988.70
2018-04-14T01:49:40.582Z,988.73
2018-04-14T01:50:40.728Z,988.67
2018-04-14T01:51:40.879Z,988.72
2018-04-14T01:52:41.030Z,988.66
2018-04-14T01:53:41.181Z,988.70
2018-04-14T01:54:41.330Z,988.71
2018-04-14T01:55:41.480Z,988.76
2018-04-14T01:56:41.631Z,988.75
2018-04-14T01:57:41.786Z,988.75
2018-04-14T01:58:41.934Z,988.76
2018-04-14T01:59:42.085Z,988.83
2018-04-14T02:00:42.236Z,988.77
2018-04-14T02:01:42.384Z,988.80
2018-04-14T02:02:42.537Z,988.78
2018-04-14T02:03:42.687Z,988.78
2018-04-14T02:04:42.837Z,988.84
2018-04-14T02:05:42.987Z,988.85
2018-04-14T02:06:43.134Z,988.83
2018-04-14T02:07:43.284Z,988.86
2018-04-14T02:08:43.435Z,988.87
2018-04-14T02:09:43.583Z,988.85
2018-04-14T02:10:43.737Z,988.87
2018-04-14T02:11:43.884Z,988.90
2018-04-14T02:12:44.032Z,988.87
2018-04-14T02:13:44.183Z,988.88
2018-04-14T02:14:44.332Z,988.83
2018-04-14T02:15:44.483Z,988.84
2018-04-14T02:16:44.636Z,988.83
2018-04-14T02:17:44.784Z,988.86
2018-04-14T02:18:44.933Z,988.84
2018-04-14T02:19:45.084Z,988.82
2018-04-14T02:20:45.235Z,988.85
2018-04-14T02:21:45.387Z,988.83
2018-04-14T02:22:45.535Z,988.79
2018-04-14T02:23:45.684Z,988.78
2018-04-14T02:24:45.833Z,988.81
2018-04-14T02:25:45.986Z,988.83
2018-04-14T02:26:46.133Z,988.79
2018-04-14T02:27:46.283Z,988.83
2018-04-14T02:28:46.434Z,988.81
2018-04-14T02:29:46.587Z,988.80
2018-04-14T02:30:46.736Z,988.78
2018-04-14T02:31:46.882Z,988.83
2018-04-14T02:32:47.032Z,988.84
2018-04-14T02:33:47.190Z,988.84
2018-04-14T02:34:47.335Z,988.89
2018-04-14T02:35:47.484Z,988.86
2018-04-14T02:36:47.636Z,988.88
2018-04-14T02:37:47.784Z,988.91
2018-04-14T02:38:47.939Z,988.88
2018-04-14T02:39:48.088Z,988.89
2018-04-14T02:40:48.233Z,988.93
2018-04-14T02:41:48.382Z,988.90
2018-04-14T02:42:48.532Z,988.90
2018-04-14T02:43:48.685Z,988.93
2018-04-14T02:44:48.837Z,989.00
2018-04-14T02:45:48.979Z,988.98
2018-04-14T02:46:49.129Z,988.94
2018-04-14T02:47:49.279Z,988.92
2018-04-14T02:48:49.433Z,988.93
2018-04-14T02:49:49.580Z,988.93
2018-04-14T02:50:49.731Z,989.01
2018-04-14T02:51:49.883Z,988.96
2018-04-14T02:52:50.030Z,989.01
2018-04-14T02:53:50.188Z,988.96
2018-04-14T02:54:50.339Z,988.98
2018-04-14T02:55:50.487Z,988.98
2018-04-14T02:56:50.641Z,988.99
2018-04-14T02:57:50.786Z,988.97
2018-04-14T02:58:50.936Z,988.97
2018-04-14T02:59:51.114Z,988.95
2018-04-14T03:00:51.236Z,989.00
2018-04-14T03:01:51.389Z,989.00
2018-04-14T03:02:51.537Z,988.99
2018-04-14T03:03:51.686Z,989.02
2018-04-14T03:04:51.836Z,989.03
2018-04-14T03:05:51.986Z,989.02
2018-04-14T03:06:52.136Z,989.05
2018-04-14T03:07:52.286Z,989.00
2018-04-14T03:08:52.434Z,989.10
2018-04-14T03:09:52.585Z,989.06
2018-04-14T03:10:52.722Z,989.13
2018-04-14T03:11:52.891Z,989.17
2018-04-14T03:12:53.038Z,989.19
2018-04-14T03:13:53.187Z,989.17
2018-04-14T03:14:53.337Z,989.13
2018-04-14T03:15:53.488Z,989.19
2018-04-14T03:16:53.639Z,989.19
2018-04-14T03:17:53.788Z,989.17
2018-04-14T03:18:53.936Z,989.18
2018-04-14T03:19:54.088Z,989.20
2018-04-14T03:20:54.239Z,989.19
2018-04-14T03:21:54.388Z,989.23
2018-04-14T03:22:54.540Z,989.19
2018-04-14T03:23:54.688Z,989.17
2018-04-14T03:24:54.835Z,989.19
2018-04-14T03:25:54.986Z,989.19
2018-04-14T03:26:55.137Z,989.18
2018-04-14T03:27:55.290Z,989.19
2018-04-14T03:28:55.439Z,989.21
2018-04-14T03:29:55.590Z,989.22
2018-04-14T03:30:55.740Z,989.19
2018-04-14T03:31:55.892Z,989.21
2018-04-14T03:32:56.042Z,989.23
2018-04-14T03:33:56.193Z,989.24
2018-04-14T03:34:56.340Z,989.23
2018-04-14T03:35:56.494Z,989.21
2018-04-14T03:36:56.645Z,989.22
2018-04-14T03:37:56.793Z,989.22
2018-04-14T03:38:56.943Z,989.20
2018-04-14T03:39:57.094Z,989.19
2018-04-14T03:40:57.244Z,989.21
2018-04-14T03:41:57.396Z,989.19
2018-04-14T03:42:57.545Z,989.25
2018-04-14T03:43:57.696Z,989.22
2018-04-14T03:44:57.846Z,989.23
2018-04-14T03:45:57.994Z,989.22
2018-04-14T03:46:58.142Z,989.23
2018-04-14T03:47:58.294Z,989.24
2018-04-14T03:48:58.449Z,989.22
2018-04-14T03:49:58.592Z,989.25
2018-04-14T03:50:58.745Z,989.22
2018-04-14T03:51:58.894Z,989.25
2018-04-14T03:52:59.044Z,989.25
2018-04-14T03:53:59.194Z,989.24
2018-04-14T03:54:59.343Z,989.25
2018-04-14T03:55:59.495Z,989.26
2018-04-14T03:56:59.645Z,989.27
2018-04-14T03:57:59.797Z,989.29
2018-04-14T03:58:59.950Z,989.31
2018-04-14T04:00:00.100Z,989.34
2018-04-14T04:01:00.250Z,989.34
2018-04-14T04:02:00.401Z,989.35
2018-04-14T04:03:00.548Z,989.37
2018-04-14T04:04:00.699Z,989.37
2018-04-14T04:05:00.851Z,989.35
2018-04-14T04:06:01.003Z,989.41
2018-04-14T04:07:01.152Z,989.42
2018-04-14T04:08:01.301Z,989.42
2018-04-14T04:09:01.453Z,989.46
2018-04-14T04:10:01.599Z,989.48
2018-04-14T04:11:01.752Z,989.41
2018-04-14T04:12:01.903Z,989.46
2018-04-14T04:13:02.057Z,989.49
2018-04-14T04:14:02.206Z,989.48
2018-04-14T04:15:02.358Z,989.48
2018-04-14T04:16:02.509Z,989.50
2018-04-14T04:17:02.658Z,989.55
2018-04-14T04:18:02.808Z,989.54
2018-04-14T04:19:02.961Z,989.54
2018-04-14T04:20:03.113Z,989.57
2018-04-14T04:21:03.261Z,989.59
2018-04-14T04:22:03.414Z,989.63
2018-04-14T04:23:03.563Z,989.62
2018-04-14T04:24:03.711Z,989.65
2018-04-14T04:25:03.863Z,989.63
2018-04-14T04:26:04.015Z,989.64
2018-04-14T04:27:04.167Z,989.68
2018-04-14T04:28:04.316Z,989.69
2018-04-14T04:29:04.571Z,989.68
2018-04-14T04:30:04.595Z,989.69
2018-04-14T04:31:04.743Z,989.73
2018-04-14T04:32:04.893Z,989.76
2018-04-14T04:33:05.046Z,989.79
2018-04-14T04:34:05.197Z,989.78
2018-04-14T04:35:05.351Z,989.82
2018-04-14T04:36:05.500Z,989.79
2018-04-14T04:37:05.649Z,989.77
2018-04-14T04:38:05.801Z,989.75
2018-04-14T04:39:05.953Z,989.78
2018-04-14T04:40:06.103Z,989.78
2018-04-14T04:41:06.255Z,989.82
2018-04-14T04:42:06.409Z,989.83
2018-04-14T04:43:06.562Z,989.89
2018-04-14T04:44:06.710Z,989.89
2018-04-14T04:45:06.862Z,989.90
2018-04-14T04:46:07.012Z,989.90
2018-04-14T04:47:07.162Z,989.91
2018-04-14T04:48:07.311Z,989.85
2018-04-14T04:49:07.463Z,989.89
2018-04-14T04:50:07.616Z,989.90
2018-04-14T04:51:07.763Z,989.96
2018-04-14T04:52:07.914Z,989.92
2018-04-14T04:53:08.066Z,989.92
2018-04-14T04:54:08.215Z,989.94
2018-04-14T04:55:08.368Z,989.96
2018-04-14T04:56:08.519Z,989.92
2018-04-14T04:57:08.671Z,989.97
2018-04-14T04:58:08.824Z,990.00
2018-04-14T04:59:08.975Z,990.00
2018-04-14T05:00:09.123Z,990.02
2018-04-14T05:01:09.276Z,990.00
2018-04-14T05:02:09.424Z,990.05
2018-04-14T05:03:09.594Z,990.06
2018-04-14T05:04:09.732Z,990.06
2018-04-14T05:05:09.883Z,990.08
2018-04-14T05:06:10.035Z,990.10
2018-04-14T05:07:10.188Z,990.08
2018-04-14T05:08:10.392Z,990.12
2018-04-14T05:09:10.492Z,990.15
2018-04-14T05:10:10.642Z,990.19
2018-04-14T05:11:10.792Z,990.22
2018-04-14T05:12:10.941Z,990.22
2018-04-14T05:13:11.100Z,990.25
2018-04-14T05:14:11.259Z,990.31
2018-04-14T05:15:11.399Z,990.28
2018-04-14T05:16:11.549Z,990.31
2018-04-14T05:17:11.702Z,990.28
2018-04-14T05:18:11.850Z,990.30
2018-04-14T05:19:12.006Z,990.32
2018-04-14T05:20:12.154Z,990.37
2018-04-14T05:21:12.307Z,990.38
2018-04-14T05:22:12.457Z,990.38
2018-04-14T05:23:12.605Z,990.41
2018-04-14T05:24:12.800Z,990.43
2018-04-14T05:25:12.908Z,990.47
2018-04-14T05:26:13.058Z,990.47
2018-04-14T05:27:13.207Z,990.47
2018-04-14T05:28:13.360Z,990.51
2018-04-14T05:29:13.517Z,990.51
2018-04-14T05:30:13.660Z,990.53
2018-04-14T05:31:13.812Z,990.51
2018-04-14T05:32:13.962Z,990.49
2018-04-14T05:33:14.113Z,990.52
2018-04-14T05:34:14.264Z,990.52
2018-04-14T05:35:14.414Z,990.50
2018-04-14T05:36:14.566Z,990.51
2018-04-14T05:37:14.718Z,990.51
2018-04-14T05:38:14.866Z,990.54
2018-04-14T05:39:15.017Z,990.57
2018-04-14T05:40:15.168Z,990.60
2018-04-14T05:41:15.319Z,990.60
2018-04-14T05:42:15.470Z,990.61
2018-04-14T05:43:15.622Z,990.59
2018-04-14T05:44:15.772Z,990.57
2018-04-14T05:45:15.925Z,990.57
2018-04-14T05:46:16.079Z,990.62
2018-04-14T05:47:16.224Z,990.63
2018-04-14T05:48:16.377Z,990.63
2018-04-14T05:49:16.529Z,990.59
2018-04-14T05:50:16.678Z,990.63
2018-04-14T05:51:16.829Z,990.69
2018-04-14T05:52:16.981Z,990.67
2018-04-14T05:53:17.132Z,990.70
2018-04-14T05:54:17.286Z,990.69
2018-04-14T05:55:17.435Z,990.71
2018-04-14T05:56:17.588Z,990.74
2018-04-14T05:57:17.739Z,990.77
2018-04-14T05:58:17.892Z,990.79
2018-04-14T05:59:18.041Z,990.77
2018-04-14T06:00:18.195Z,990.78
2018-04-14T06:01:18.347Z,990.81
2018-04-14T06:02:18.494Z,990.83
2018-04-14T06:03:18.647Z,990.84
2018-04-14T06:04:18.799Z,990.89
2018-04-14T06:05:18.951Z,990.90
2018-04-14T06:06:19.116Z,990.86
2018-04-14T06:07:19.278Z,990.90
2018-04-14T06:08:19.408Z,990.91
2018-04-14T06:09:19.558Z,990.90
2018-04-14T06:10:19.711Z,990.88
2018-04-14T06:11:19.858Z,990.95
2018-04-14T06:12:20.007Z,990.99
2018-04-14T06:13:20.156Z,990.98
2018-04-14T06:14:20.307Z,991.02
2018-04-14T06:15:20.457Z,991.06
2018-04-14T06:16:20.612Z,991.04
2018-04-14T06:17:20.760Z,991.05
2018-04-14T06:18:20.914Z,991.04
2018-04-14T06:19:21.063Z,991.07
2018-04-14T06:20:21.214Z,991.08
2018-04-14T06:21:21.367Z,991.08
2018-04-14T06:22:21.539Z,991.05
2018-04-14T06:23:21.669Z,991.00
2018-04-14T06:24:21.821Z,991.09
2018-04-14T06:25:21.974Z,991.09
2018-04-14T06:26:22.121Z,991.08
2018-04-14T06:27:22.272Z,991.06
2018-04-14T06:28:22.424Z,991.04
2018-04-14T06:29:22.574Z,991.06
2018-04-14T06:30:22.730Z,991.07
2018-04-14T06:31:22.874Z,991.08
2018-04-14T06:32:23.026Z,991.08
2018-04-14T06:33:23.182Z,991.08
2018-04-14T06:34:23.328Z,991.13
2018-04-14T06:35:23.482Z,991.15
2018-04-14T06:36:23.632Z,991.14
2018-04-14T06:37:23.783Z,991.14
2018-04-14T06:38:23.933Z,991.22
2018-04-14T06:39:24.089Z,991.17
2018-04-14T06:40:24.237Z,991.22
2018-04-14T06:41:24.391Z,991.22
2018-04-14T06:42:24.541Z,991.28
2018-04-14T06:43:24.693Z,991.30
2018-04-14T06:44:24.858Z,991.25
2018-04-14T06:45:24.991Z,991.28
2018-04-14T06:46:25.151Z,991.30
2018-04-14T06:47:25.303Z,991.26
2018-04-14T06:48:25.451Z,991.27
2018-04-14T06:49:25.604Z,991.31
2018-04-14T06:50:25.756Z,991.21
2018-04-14T06:51:25.910Z,991.22
2018-04-14T06:52:26.553Z,991.27
2018-04-14T06:53:26.213Z,991.31
2018-04-14T06:54:26.306Z,991.29
2018-04-14T06:55:26.458Z,991.31
2018-04-14T06:56:26.610Z,991.28
2018-04-14T06:57:26.762Z,991.29
2018-04-14T06:58:27.119Z,991.31
2018-04-14T06:59:27.067Z,991.33
2018-04-14T07:00:27.216Z,991.32
2018-04-14T07:01:27.371Z,991.31
2018-04-14T07:02:27.519Z,991.32
2018-04-14T07:03:27.673Z,991.34
2018-04-14T07:04:27.853Z,991.33
2018-04-14T07:05:27.976Z,991.29
2018-04-14T07:06:28.171Z,991.30
2018-04-14T07:07:28.271Z,991.28
2018-04-14T07:08:28.420Z,991.33
2018-04-14T07:09:28.571Z,991.30
2018-04-14T07:10:28.726Z,991.35
2018-04-14T07:11:28.946Z,991.33
2018-04-14T07:12:29.018Z,991.38
2018-04-14T07:13:29.172Z,991.40
2018-04-14T07:14:29.334Z,991.37
2018-04-14T07:15:29.478Z,991.38
2018-04-14T07:16:29.627Z,991.39
2018-04-14T07:17:29.786Z,991.38
2018-04-14T07:18:29.941Z,991.37
2018-04-14T07:19:30.092Z,991.41
2018-04-14T07:20:30.297Z,991.44
2018-04-14T07:21:30.401Z,991.43
2018-04-14T07:22:30.552Z,991.48
2018-04-14T07:23:30.704Z,991.50
2018-04-14T07:24:30.856Z,991.46
2018-04-14T07:25:31.012Z,991.53
2018-04-14T07:26:31.166Z,991.48
2018-04-14T07:27:31.320Z,991.52
2018-04-14T07:28:31.472Z,991.51
2018-04-14T07:29:31.628Z,991.53
2018-04-14T07:30:31.773Z,991.47
2018-04-14T07:31:31.924Z,991.50
2018-04-14T07:32:32.076Z,991.48
2018-04-14T07:33:32.232Z,991.47
2018-04-14T07:34:32.380Z,991.46
2018-04-14T07:35:32.529Z,991.49
2018-04-14T07:36:32.681Z,991.45
2018-04-14T07:37:32.897Z,991.48
2018-04-14T07:38:32.986Z,991.47
2018-04-14T07:39:33.222Z,991.46
2018-04-14T07:40:33.291Z,991.50
2018-04-14T07:41:33.442Z,991.52
2018-04-14T07:42:33.617Z,991.50
2018-04-14T07:43:33.748Z,991.49
2018-04-14T07:44:33.891Z,991.51
2018-04-14T07:45:34.043Z,991.53
2018-04-14T07:46:34.198Z,991.51
2018-04-14T07:47:34.345Z,991.50
2018-04-14T07:48:34.499Z,991.56
2018-04-14T07:49:34.650Z,991.52
2018-04-14T07:50:34.801Z,991.56
2018-04-14T07:51:34.964Z,991.57
2018-04-14T07:52:35.108Z,991.62
2018-04-14T07:53:35.263Z,991.60
2018-04-14T07:54:35.415Z,991.60
2018-04-14T07:55:35.568Z,991.60
2018-04-14T07:56:35.720Z,991.61
2018-04-14T07:57:35.870Z,991.60
2018-04-14T07:58:36.025Z,991.61
2018-04-14T07:59:36.177Z,991.61
2018-04-14T08:00:36.329Z,991.63
2018-04-14T08:01:36.483Z,991.60
2018-04-14T08:02:36.638Z,991.62
2018-04-14T08:03:36.789Z,991.63
2018-04-14T08:04:36.944Z,991.63
2018-04-14T08:05:37.095Z,991.68
2018-04-14T08:06:37.246Z,991.64
2018-04-14T08:07:37.399Z,991.67
2018-04-14T08:08:37.553Z,991.66
2018-04-14T08:09:37.713Z,991.68
2018-04-14T08:10:37.863Z,991.69
2018-04-14T08:11:38.025Z,991.70
2018-04-14T08:12:38.168Z,991.71
2018-04-14T08:13:38.322Z,991.72
2018-04-14T08:14:38.480Z,991.77
2018-04-14T08:15:38.629Z,991.80
2018-04-14T08:16:38.786Z,991.84
2018-04-14T08:17:38.938Z,991.82
2018-04-14T08:18:39.094Z,991.81
2018-04-14T08:19:39.246Z,991.84
2018-04-14T08:20:39.397Z,991.84
2018-04-14T08:21:39.548Z,991.84
2018-04-14T08:22:39.701Z,991.80
2018-04-14T08:23:39.855Z,991.84
2018-04-14T08:24:40.045Z,991.82
2018-04-14T08:25:40.164Z,991.85
2018-04-14T08:26:40.316Z,991.89
2018-04-14T08:27:40.471Z,991.88
2018-04-14T08:28:40.626Z,991.89
2018-04-14T08:29:40.778Z,991.89
2018-04-14T08:30:40.929Z,991.90
2018-04-14T08:31:41.081Z,991.87
2018-04-14T08:32:41.239Z,991.87
2018-04-14T08:33:41.392Z,991.90
2018-04-14T08:34:41.544Z,991.87
2018-04-14T08:35:41.701Z,991.90
2018-04-14T08:36:41.854Z,991.94
2018-04-14T08:37:42.009Z,991.91
2018-04-14T08:38:42.162Z,991.95
2018-04-14T08:39:42.319Z,991.89
2018-04-14T08:40:42.469Z,991.97
2018-04-14T08:41:42.624Z,991.95
2018-04-14T08:42:42.777Z,991.95
2018-04-14T08:43:42.932Z,991.97
2018-04-14T08:44:43.085Z,991.95
2018-04-14T08:45:43.238Z,991.94
2018-04-14T08:46:43.393Z,991.98
2018-04-14T08:47:43.544Z,992.01
2018-04-14T08:48:43.700Z,991.97
2018-04-14T08:49:43.853Z,992.02
2018-04-14T08:50:44.008Z,991.98
2018-04-14T08:51:44.161Z,992.01
2018-04-14T08:52:44.315Z,991.97
2018-04-14T08:53:44.470Z,991.98
2018-04-14T08:54:44.624Z,991.96
2018-04-14T08:55:44.778Z,992.01
2018-04-14T08:56:44.935Z,992.00
2018-04-14T08:57:45.087Z,991.99
2018-04-14T08:58:45.239Z,992.03
2018-04-14T08:59:45.393Z,992.00
2018-04-14T09:00:45.548Z,991.96
2018-04-14T09:01:45.707Z,991.99
2018-04-14T09:02:45.857Z,991.97
2018-04-14T09:03:46.009Z,991.99
2018-04-14T09:04:46.159Z,991.99
2018-04-14T09:05:46.319Z,992.02
2018-04-14T09:06:46.468Z,991.99
2018-04-14T09:07:46.626Z,992.02
2018-04-14T09:08:46.779Z,991.98
2018-04-14T09:09:46.935Z,992.05
2018-04-14T09:10:47.090Z,992.06
2018-04-14T09:11:47.243Z,992.03
2018-04-14T09:12:47.398Z,992.05
2018-04-14T09:13:47.555Z,992.02
2018-04-14T09:14:47.708Z,992.03
2018-04-14T09:15:47.865Z,992.03
2018-04-14T09:16:48.020Z,992.04
2018-04-14T09:17:48.174Z,992.01
2018-04-14T09:18:48.334Z,992.02
2018-04-14T09:19:48.483Z,992.06
2018-04-14T09:20:48.637Z,992.02
2018-04-14T09:21:48.793Z,991.99
2018-04-14T09:22:48.951Z,991.98
2018-04-14T09:23:49.103Z,991.93
2018-04-14T09:24:49.259Z,991.98
2018-04-14T09:25:49.411Z,991.98
2018-04-14T09:26:49.563Z,992.01
2018-04-14T09:27:49.715Z,992.03
2018-04-14T09:28:49.868Z,992.07
2018-04-14T09:29:50.024Z,992.05
2018-04-14T09:30:50.179Z,992.06
2018-04-14T09:31:50.336Z,992.03
2018-04-14T09:32:50.528Z,991.97
2018-04-14T09:33:50.632Z,992.01
2018-04-14T09:34:50.793Z,992.04
2018-04-14T09:35:50.949Z,992.07
2018-04-14T09:36:51.106Z,992.09
2018-04-14T09:37:51.270Z,992.06
2018-04-14T09:38:51.420Z,992.02
2018-04-14T09:39:51.573Z,992.07
2018-04-14T09:40:51.728Z,991.98
2018-04-14T09:41:51.890Z,991.99
2018-04-14T09:42:52.092Z,991.96
2018-04-14T09:43:52.203Z,992.01
2018-04-14T09:44:52.356Z,991.97
2018-04-14T09:45:52.513Z,991.97
2018-04-14T09:46:52.671Z,992.01
2018-04-14T09:47:52.822Z,991.95
2018-04-14T09:48:53.039Z,992.04
2018-04-14T09:49:53.119Z,992.07
2018-04-14T09:50:53.269Z,992.04
2018-04-14T09:51:53.426Z,992.06
2018-04-14T09:52:53.580Z,992.14
2018-04-14T09:53:53.735Z,992.11
2018-04-14T09:54:53.893Z,992.12
2018-04-14T09:55:54.049Z,992.20
2018-04-14T09:56:54.204Z,992.12
2018-04-14T09:57:54.361Z,992.11
2018-04-14T09:58:54.519Z,992.11
2018-04-14T09:59:54.674Z,992.09
2018-04-14T10:00:54.831Z,992.10
2018-04-14T10:01:54.986Z,992.14
2018-04-14T10:02:55.150Z,992.11
2018-04-14T10:03:55.299Z,992.10
2018-04-14T10:04:55.457Z,992.11
2018-04-14T10:05:55.612Z,992.18
2018-04-14T10:06:55.768Z,992.07
2018-04-14T10:07:55.924Z,992.11
2018-04-14T10:08:56.078Z,992.15
2018-04-14T10:09:56.234Z,992.12
2018-04-14T10:10:56.391Z,992.11
2018-04-14T10:11:56.550Z,992.10
2018-04-14T10:12:56.703Z,992.12
2018-04-14T10:13:56.865Z,992.07
2018-04-14T10:14:57.017Z,992.14
2018-04-14T10:15:57.205Z,992.12
2018-04-14T10:16:57.324Z,992.14
2018-04-14T10:17:57.482Z,992.08
2018-04-14T10:18:57.642Z,992.08
2018-04-14T10:19:57.792Z,992.06
2018-04-14T10:20:57.946Z,992.06
2018-04-14T10:21:58.106Z,992.07
2018-04-14T10:22:58.261Z,992.13
2018-04-14T10:23:58.419Z,992.10
2018-04-14T10:24:58.575Z,992.07
2018-04-14T10:25:58.729Z,992.09
2018-04-14T10:26:58.889Z,992.07
2018-04-14T10:27:59.041Z,992.08
2018-04-14T10:28:59.199Z,992.10
2018-04-14T10:29:59.354Z,992.12
2018-04-14T10:30:59.509Z,992.12
2018-04-14T10:31:59.669Z,992.15
2018-04-14T10:32:59.822Z,992.13
2018-04-14T10:33:59.984Z,992.16
2018-04-14T10:35:00.138Z,992.09
2018-04-14T10:36:00.294Z,992.17
2018-04-14T10:37:00.491Z,992.15
2018-04-14T10:38:00.611Z,992.15
2018-04-14T10:39:00.764Z,992.21
2018-04-14T10:40:00.918Z,992.17
2018-04-14T10:41:01.074Z,992.19
2018-04-14T10:43:01.339Z,992.16
2018-04-14T10:44:01.511Z,992.20
2018-04-14T10:45:01.670Z,992.19
2018-04-14T10:46:01.824Z,992.26
2018-04-14T10:47:01.979Z,992.25
2018-04-14T10:48:02.139Z,992.23
2018-04-14T10:49:02.291Z,992.21
2018-04-14T10:50:02.470Z,992.24
2018-04-14T10:51:02.605Z,992.23
2018-04-14T10:52:02.770Z,992.25
2018-04-14T10:53:02.923Z,992.25
2018-04-14T10:54:03.085Z,992.19
2018-04-14T10:55:03.241Z,992.14
2018-04-14T10:56:03.398Z,992.19
2018-04-14T10:57:03.554Z,992.24
2018-04-14T10:58:03.710Z,992.24
2018-04-14T10:59:03.868Z,992.17
2018-04-14T11:00:04.025Z,992.21
2018-04-14T11:01:04.183Z,992.13
2018-04-14T11:02:04.346Z,992.19
2018-04-14T11:03:04.499Z,992.25
2018-04-14T11:04:04.658Z,992.14
2018-04-14T11:05:04.818Z,992.21
2018-04-14T11:06:05.782Z,992.23
2018-04-14T11:07:05.190Z,992.25
2018-04-14T11:08:05.348Z,992.18
2018-04-14T11:09:05.518Z,992.19
2018-04-14T11:10:05.681Z,992.21
2018-04-14T11:11:05.850Z,992.15
2018-04-14T11:12:06.020Z,992.19
2018-04-14T11:13:06.207Z,992.13
2018-04-14T11:14:06.381Z,992.09
2018-04-14T11:15:06.554Z,992.09
2018-04-14T11:16:06.721Z,992.14
2018-04-14T11:17:06.883Z,992.16
2018-04-14T11:18:07.058Z,992.24
2018-04-14T11:19:07.220Z,992.16
2018-04-14T11:20:07.378Z,992.10
2018-04-14T11:21:07.545Z,992.13
2018-04-14T11:22:07.710Z,992.10
2018-04-14T11:23:07.885Z,992.11
2018-04-14T11:24:08.052Z,992.05
2018-04-14T11:25:08.216Z,992.05
2018-04-14T11:26:09.288Z,992.05
2018-04-14T11:27:08.580Z,992.01
2018-04-14T11:28:08.737Z,991.98
2018-04-14T11:29:08.892Z,992.00
2018-04-14T11:30:10.786Z,992.05
2018-04-14T11:31:09.197Z,992.10
2018-04-14T11:32:09.355Z,991.96
2018-04-14T11:33:09.521Z,991.93
2018-04-14T11:34:09.683Z,992.00
2018-04-14T11:35:09.851Z,991.93
2018-04-14T11:36:10.019Z,991.95
2018-04-14T11:37:10.188Z,991.98
2018-04-14T11:38:10.350Z,992.00
2018-04-14T11:39:10.518Z,992.00
2018-04-14T11:40:10.681Z,992.10
2018-04-14T11:41:10.848Z,991.99
2018-04-14T11:42:11.009Z,992.04
2018-04-14T11:43:11.167Z,992.05
2018-04-14T11:44:11.334Z,992.12
2018-04-14T11:45:11.503Z,992.09
2018-04-14T11:46:11.663Z,992.02
2018-04-14T11:47:11.822Z,992.06
2018-04-14T11:48:11.993Z,992.09
2018-04-14T11:49:12.157Z,992.02
2018-04-14T11:50:12.317Z,991.97
2018-04-14T11:51:12.473Z,991.98
2018-04-14T11:52:12.629Z,991.97
2018-04-14T11:53:12.789Z,992.02
2018-04-14T11:54:12.948Z,992.02
2018-04-14T11:55:13.107Z,992.02
2018-04-14T11:56:13.271Z,991.98
2018-04-14T11:57:13.427Z,992.04
2018-04-14T11:58:13.582Z,992.05
2018-04-14T11:59:13.742Z,992.05
2018-04-14T12:00:13.897Z,992.08
2018-04-14T12:01:14.054Z,992.08
2018-04-14T12:02:14.213Z,992.09
2018-04-14T12:03:14.372Z,992.11
2018-04-14T12:04:14.532Z,992.13
2018-04-14T12:05:14.691Z,992.12
2018-04-14T12:06:14.845Z,992.12
2018-04-14T12:07:15.005Z,992.15
2018-04-14T12:08:15.162Z,992.14
2018-04-14T12:09:15.319Z,992.15
2018-04-14T12:10:15.482Z,992.14
2018-04-14T12:11:15.639Z,992.17
2018-04-14T12:12:15.796Z,992.20
2018-04-14T12:13:15.951Z,992.20
2018-04-14T12:14:16.118Z,992.14
2018-04-14T12:15:16.274Z,992.18
2018-04-14T12:16:16.434Z,992.10
2018-04-14T12:17:16.591Z,992.15
2018-04-14T12:18:16.748Z,992.17
2018-04-14T12:19:16.907Z,992.15
2018-04-14T12:20:17.063Z,992.17
2018-04-14T12:21:17.222Z,992.18
2018-04-14T12:22:17.382Z,992.20
2018-04-14T12:23:17.536Z,992.21
2018-04-14T12:24:17.696Z,992.17
2018-04-14T12:25:17.853Z,992.22
2018-04-14T12:26:18.010Z,992.24
2018-04-14T12:27:18.168Z,992.23
2018-04-14T12:28:18.337Z,992.27
2018-04-14T12:29:18.490Z,992.24
2018-04-14T12:30:18.641Z,992.26
2018-04-14T12:31:18.799Z,992.27